sensor_id;sensor_type;location;lat;lon;timestamp;P1;durP1;ratioP1;P2;durP2;ratioP2
74213;SDS011;62576;55.694;37.494;2023-02-10T00:00:51;9.48;;;4.15;;
74213;SDS011;62576;55.694;37.494;2023-02-10T00:03:20;9.98;;;4.32;;
74213;SDS011;62576;55.694;37.494;2023-02-10T00:05:50;9.07;;;4.03;;
74213;SDS011;62576;55.694;37.494;2023-02-10T00:08:21;10.48;;;4.18;;
74213;SDS011;62576;55.694;37.494;2023-02-10T00:10:50;9.80;;;4.32;;
74213;SDS011;62576;55.694;37.494;2023-02-10T00:13:21;10.25;;;4.05;;
74213;SDS011;62576;55.694;37.494;2023-02-10T00:15:53;9.80;;;3.53;;
74213;SDS011;62576;55.694;37.494;2023-02-10T00:18:23;10.98;;;3.97;;
74213;SDS011;62576;55.694;37.494;2023-02-10T00:20:53;11.50;;;4.28;;
74213;SDS011;62576;55.694;37.494;2023-02-10T00:23:24;9.18;;;3.80;;
74213;SDS011;62576;55.694;37.494;2023-02-10T00:25:56;11.40;;;4.03;;
74213;SDS011;62576;55.694;37.494;2023-02-10T00:28:26;10.82;;;5.15;;
74213;SDS011;62576;55.694;37.494;2023-02-10T00:30:57;10.27;;;4.25;;
74213;SDS011;62576;55.694;37.494;2023-02-10T00:33:27;8.40;;;3.80;;
74213;SDS011;62576;55.694;37.494;2023-02-10T00:35:57;6.85;;;3.15;;
74213;SDS011;62576;55.694;37.494;2023-02-10T00:38:27;7.45;;;3.38;;
74213;SDS011;62576;55.694;37.494;2023-02-10T00:41:01;9.68;;;3.58;;
74213;SDS011;62576;55.694;37.494;2023-02-10T00:43:31;7.00;;;2.90;;
74213;SDS011;62576;55.694;37.494;2023-02-10T00:46:03;7.95;;;3.50;;
74213;SDS011;62576;55.694;37.494;2023-02-10T00:48:33;9.40;;;3.65;;
74213;SDS011;62576;55.694;37.494;2023-02-10T00:51:07;9.57;;;3.15;;
74213;SDS011;62576;55.694;37.494;2023-02-10T00:53:37;9.60;;;3.25;;
74213;SDS011;62576;55.694;37.494;2023-02-10T00:56:07;9.50;;;3.50;;
74213;SDS011;62576;55.694;37.494;2023-02-10T00:58:37;7.10;;;2.83;;
74213;SDS011;62576;55.694;37.494;2023-02-10T01:01:09;8.63;;;3.45;;
74213;SDS011;62576;55.694;37.494;2023-02-10T01:03:40;9.32;;;3.50;;
74213;SDS011;62576;55.694;37.494;2023-02-10T01:06:13;9.27;;;3.75;;
74213;SDS011;62576;55.694;37.494;2023-02-10T01:08:44;8.40;;;3.42;;
74213;SDS011;62576;55.694;37.494;2023-02-10T01:11:14;8.40;;;3.50;;
74213;SDS011;62576;55.694;37.494;2023-02-10T01:13:45;8.57;;;3.70;;
74213;SDS011;62576;55.694;37.494;2023-02-10T01:16:18;9.38;;;3.53;;
74213;SDS011;62576;55.694;37.494;2023-02-10T01:18:48;7.72;;;3.05;;
74213;SDS011;62576;55.694;37.494;2023-02-10T01:21:19;11.30;;;3.95;;
74213;SDS011;62576;55.694;37.494;2023-02-10T01:23:49;8.90;;;3.97;;
74213;SDS011;62576;55.694;37.494;2023-02-10T01:26:19;13.43;;;5.70;;
74213;SDS011;62576;55.694;37.494;2023-02-10T01:28:49;11.43;;;5.07;;
74213;SDS011;62576;55.694;37.494;2023-02-10T01:31:21;12.60;;;4.93;;
74213;SDS011;62576;55.694;37.494;2023-02-10T01:33:51;10.15;;;4.25;;
74213;SDS011;62576;55.694;37.494;2023-02-10T01:36:26;12.63;;;4.82;;
74213;SDS011;62576;55.694;37.494;2023-02-10T01:38:56;11.15;;;4.53;;
74213;SDS011;62576;55.694;37.494;2023-02-10T01:41:26;12.60;;;4.93;;
74213;SDS011;62576;55.694;37.494;2023-02-10T01:43:58;9.30;;;3.83;;
74213;SDS011;62576;55.694;37.494;2023-02-10T01:46:35;12.35;;;4.45;;
74213;SDS011;62576;55.694;37.494;2023-02-10T01:49:06;11.20;;;4.03;;
74213;SDS011;62576;55.694;37.494;2023-02-10T01:51:41;12.82;;;4.70;;
74213;SDS011;62576;55.694;37.494;2023-02-10T01:54:16;15.18;;;4.10;;
74213;SDS011;62576;55.694;37.494;2023-02-10T01:56:51;11.75;;;4.57;;
74213;SDS011;62576;55.694;37.494;2023-02-10T01:59:19;11.82;;;4.65;;
74213;SDS011;62576;55.694;37.494;2023-02-10T02:01:53;12.20;;;4.10;;
74213;SDS011;62576;55.694;37.494;2023-02-10T02:04:24;10.35;;;3.75;;
74213;SDS011;62576;55.694;37.494;2023-02-10T02:06:54;13.30;;;4.90;;
74213;SDS011;62576;55.694;37.494;2023-02-10T02:09:25;10.30;;;3.42;;
74213;SDS011;62576;55.694;37.494;2023-02-10T02:11:57;12.80;;;4.50;;
74213;SDS011;62576;55.694;37.494;2023-02-10T02:14:39;14.27;;;5.28;;
74213;SDS011;62576;55.694;37.494;2023-02-10T02:17:20;12.35;;;4.95;;
74213;SDS011;62576;55.694;37.494;2023-02-10T02:20:08;10.27;;;4.60;;
74213;SDS011;62576;55.694;37.494;2023-02-10T02:23:12;12.23;;;4.55;;
74213;SDS011;62576;55.694;37.494;2023-02-10T02:25:55;11.90;;;4.57;;
74213;SDS011;62576;55.694;37.494;2023-02-10T02:28:41;13.15;;;4.63;;
74213;SDS011;62576;55.694;37.494;2023-02-10T02:34:31;14.38;;;5.40;;
74213;SDS011;62576;55.694;37.494;2023-02-10T02:37:10;14.57;;;5.20;;
74213;SDS011;62576;55.694;37.494;2023-02-10T02:39:47;10.48;;;4.78;;
74213;SDS011;62576;55.694;37.494;2023-02-10T02:42:19;14.88;;;5.47;;
74213;SDS011;62576;55.694;37.494;2023-02-10T02:44:51;15.05;;;5.65;;
74213;SDS011;62576;55.694;37.494;2023-02-10T02:50:09;10.43;;;4.13;;
74213;SDS011;62576;55.694;37.494;2023-02-10T02:52:58;16.52;;;5.55;;
74213;SDS011;62576;55.694;37.494;2023-02-10T02:55:39;13.30;;;5.28;;
74213;SDS011;62576;55.694;37.494;2023-02-10T02:58:20;14.55;;;5.63;;
74213;SDS011;62576;55.694;37.494;2023-02-10T03:00:57;14.18;;;5.53;;
74213;SDS011;62576;55.694;37.494;2023-02-10T03:03:34;10.68;;;4.47;;
74213;SDS011;62576;55.694;37.494;2023-02-10T03:06:07;16.00;;;4.88;;
74213;SDS011;62576;55.694;37.494;2023-02-10T03:08:38;14.77;;;5.25;;
74213;SDS011;62576;55.694;37.494;2023-02-10T03:11:10;15.30;;;5.68;;
74213;SDS011;62576;55.694;37.494;2023-02-10T03:13:37;16.08;;;6.28;;
74213;SDS011;62576;55.694;37.494;2023-02-10T03:16:07;18.30;;;6.85;;
74213;SDS011;62576;55.694;37.494;2023-02-10T03:18:37;15.57;;;6.47;;
74213;SDS011;62576;55.694;37.494;2023-02-10T03:21:10;15.15;;;5.43;;
74213;SDS011;62576;55.694;37.494;2023-02-10T03:23:40;17.95;;;6.28;;
74213;SDS011;62576;55.694;37.494;2023-02-10T03:26:11;15.55;;;6.68;;
74213;SDS011;62576;55.694;37.494;2023-02-10T03:28:41;17.23;;;6.55;;
74213;SDS011;62576;55.694;37.494;2023-02-10T03:31:11;16.77;;;6.13;;
74213;SDS011;62576;55.694;37.494;2023-02-10T03:33:42;16.33;;;7.07;;
74213;SDS011;62576;55.694;37.494;2023-02-10T03:36:13;20.55;;;7.78;;
74213;SDS011;62576;55.694;37.494;2023-02-10T03:38:43;15.77;;;6.53;;
74213;SDS011;62576;55.694;37.494;2023-02-10T03:41:14;19.80;;;7.40;;
74213;SDS011;62576;55.694;37.494;2023-02-10T03:43:44;14.43;;;5.78;;
74213;SDS011;62576;55.694;37.494;2023-02-10T03:46:14;22.10;;;7.78;;
74213;SDS011;62576;55.694;37.494;2023-02-10T03:48:43;23.75;;;8.20;;
74213;SDS011;62576;55.694;37.494;2023-02-10T03:51:15;21.60;;;8.10;;
74213;SDS011;62576;55.694;37.494;2023-02-10T03:53:45;21.92;;;8.45;;
74213;SDS011;62576;55.694;37.494;2023-02-10T03:56:15;21.88;;;8.43;;
74213;SDS011;62576;55.694;37.494;2023-02-10T03:58:45;21.58;;;8.25;;
74213;SDS011;62576;55.694;37.494;2023-02-10T04:01:16;21.95;;;8.50;;
74213;SDS011;62576;55.694;37.494;2023-02-10T04:03:46;18.23;;;7.28;;
74213;SDS011;62576;55.694;37.494;2023-02-10T04:06:18;17.92;;;7.18;;
74213;SDS011;62576;55.694;37.494;2023-02-10T04:08:48;14.00;;;5.75;;
74213;SDS011;62576;55.694;37.494;2023-02-10T04:11:18;21.02;;;8.20;;
74213;SDS011;62576;55.694;37.494;2023-02-10T04:13:48;21.98;;;7.40;;
74213;SDS011;62576;55.694;37.494;2023-02-10T04:16:18;18.25;;;6.82;;
74213;SDS011;62576;55.694;37.494;2023-02-10T04:18:51;19.25;;;6.97;;
74213;SDS011;62576;55.694;37.494;2023-02-10T04:21:23;18.27;;;7.63;;
74213;SDS011;62576;55.694;37.494;2023-02-10T04:23:53;19.92;;;7.68;;
74213;SDS011;62576;55.694;37.494;2023-02-10T04:26:24;17.08;;;7.22;;
74213;SDS011;62576;55.694;37.494;2023-02-10T04:28:54;21.98;;;7.68;;
74213;SDS011;62576;55.694;37.494;2023-02-10T04:31:24;13.20;;;6.10;;
74213;SDS011;62576;55.694;37.494;2023-02-10T04:33:54;23.67;;;8.02;;
74213;SDS011;62576;55.694;37.494;2023-02-10T04:36:25;18.33;;;7.00;;
74213;SDS011;62576;55.694;37.494;2023-02-10T04:38:56;21.63;;;7.95;;
74213;SDS011;62576;55.694;37.494;2023-02-10T04:41:26;16.45;;;6.68;;
74213;SDS011;62576;55.694;37.494;2023-02-10T04:43:56;21.10;;;7.30;;
74213;SDS011;62576;55.694;37.494;2023-02-10T04:46:26;17.13;;;6.70;;
74213;SDS011;62576;55.694;37.494;2023-02-10T04:48:56;15.35;;;6.20;;
74213;SDS011;62576;55.694;37.494;2023-02-10T04:51:31;16.73;;;6.50;;
74213;SDS011;62576;55.694;37.494;2023-02-10T04:54:01;16.73;;;6.32;;
74213;SDS011;62576;55.694;37.494;2023-02-10T04:56:31;17.55;;;7.07;;
74213;SDS011;62576;55.694;37.494;2023-02-10T04:58:58;18.25;;;6.53;;
74213;SDS011;62576;55.694;37.494;2023-02-10T05:01:30;20.70;;;7.68;;
74213;SDS011;62576;55.694;37.494;2023-02-10T05:04:00;20.00;;;7.90;;
74213;SDS011;62576;55.694;37.494;2023-02-10T05:06:32;17.52;;;6.53;;
74213;SDS011;62576;55.694;37.494;2023-02-10T05:09:02;17.85;;;6.88;;
74213;SDS011;62576;55.694;37.494;2023-02-10T05:11:33;18.42;;;6.78;;
74213;SDS011;62576;55.694;37.494;2023-02-10T05:14:03;16.67;;;6.75;;
74213;SDS011;62576;55.694;37.494;2023-02-10T05:16:33;21.10;;;7.43;;
74213;SDS011;62576;55.694;37.494;2023-02-10T05:19:06;15.20;;;5.55;;
74213;SDS011;62576;55.694;37.494;2023-02-10T05:21:39;17.87;;;7.10;;
74213;SDS011;62576;55.694;37.494;2023-02-10T05:24:09;14.55;;;6.22;;
74213;SDS011;62576;55.694;37.494;2023-02-10T05:26:39;17.10;;;6.45;;
74213;SDS011;62576;55.694;37.494;2023-02-10T05:29:09;17.75;;;7.38;;
74213;SDS011;62576;55.694;37.494;2023-02-10T05:31:39;18.60;;;6.88;;
74213;SDS011;62576;55.694;37.494;2023-02-10T05:34:10;15.65;;;6.15;;
74213;SDS011;62576;55.694;37.494;2023-02-10T05:36:41;18.35;;;7.28;;
74213;SDS011;62576;55.694;37.494;2023-02-10T05:39:12;16.67;;;6.82;;
74213;SDS011;62576;55.694;37.494;2023-02-10T05:41:56;17.27;;;6.97;;
74213;SDS011;62576;55.694;37.494;2023-02-10T05:44:28;17.25;;;6.32;;
74213;SDS011;62576;55.694;37.494;2023-02-10T05:47:04;18.55;;;7.72;;
74213;SDS011;62576;55.694;37.494;2023-02-10T05:49:35;15.73;;;6.47;;
74213;SDS011;62576;55.694;37.494;2023-02-10T05:52:06;18.83;;;6.28;;
74213;SDS011;62576;55.694;37.494;2023-02-10T05:54:36;19.33;;;7.38;;
74213;SDS011;62576;55.694;37.494;2023-02-10T05:57:08;17.50;;;6.25;;
74213;SDS011;62576;55.694;37.494;2023-02-10T05:59:38;17.65;;;7.30;;
74213;SDS011;62576;55.694;37.494;2023-02-10T06:02:09;17.92;;;7.07;;
74213;SDS011;62576;55.694;37.494;2023-02-10T06:04:40;16.98;;;7.35;;
74213;SDS011;62576;55.694;37.494;2023-02-10T06:07:11;17.30;;;6.90;;
74213;SDS011;62576;55.694;37.494;2023-02-10T06:09:41;18.95;;;6.85;;
74213;SDS011;62576;55.694;37.494;2023-02-10T06:12:12;21.25;;;6.95;;
74213;SDS011;62576;55.694;37.494;2023-02-10T06:14:43;21.23;;;6.78;;
74213;SDS011;62576;55.694;37.494;2023-02-10T06:17:16;15.93;;;5.45;;
74213;SDS011;62576;55.694;37.494;2023-02-10T06:19:46;15.45;;;5.75;;
74213;SDS011;62576;55.694;37.494;2023-02-10T06:22:19;18.95;;;6.78;;
74213;SDS011;62576;55.694;37.494;2023-02-10T06:24:50;15.43;;;5.82;;
74213;SDS011;62576;55.694;37.494;2023-02-10T06:27:22;18.63;;;7.38;;
74213;SDS011;62576;55.694;37.494;2023-02-10T06:29:53;19.55;;;6.70;;
74213;SDS011;62576;55.694;37.494;2023-02-10T06:32:24;21.02;;;7.50;;
74213;SDS011;62576;55.694;37.494;2023-02-10T06:34:54;15.82;;;6.40;;
74213;SDS011;62576;55.694;37.494;2023-02-10T06:37:25;17.30;;;6.28;;
74213;SDS011;62576;55.694;37.494;2023-02-10T06:39:56;20.48;;;6.47;;
74213;SDS011;62576;55.694;37.494;2023-02-10T06:42:27;18.60;;;6.88;;
74213;SDS011;62576;55.694;37.494;2023-02-10T06:44:59;22.75;;;7.97;;
74213;SDS011;62576;55.694;37.494;2023-02-10T06:47:30;20.95;;;7.60;;
74213;SDS011;62576;55.694;37.494;2023-02-10T06:50:00;18.92;;;6.90;;
74213;SDS011;62576;55.694;37.494;2023-02-10T06:52:33;16.17;;;6.05;;
74213;SDS011;62576;55.694;37.494;2023-02-10T06:55:06;22.40;;;6.45;;
74213;SDS011;62576;55.694;37.494;2023-02-10T06:57:39;21.05;;;7.60;;
74213;SDS011;62576;55.694;37.494;2023-02-10T07:00:16;19.98;;;7.65;;
74213;SDS011;62576;55.694;37.494;2023-02-10T07:02:46;18.05;;;6.88;;
74213;SDS011;62576;55.694;37.494;2023-02-10T07:05:17;19.45;;;6.80;;
74213;SDS011;62576;55.694;37.494;2023-02-10T07:07:48;19.55;;;7.32;;
74213;SDS011;62576;55.694;37.494;2023-02-10T07:10:22;17.40;;;7.22;;
74213;SDS011;62576;55.694;37.494;2023-02-10T07:12:54;19.17;;;6.75;;
74213;SDS011;62576;55.694;37.494;2023-02-10T07:15:25;17.60;;;6.38;;
74213;SDS011;62576;55.694;37.494;2023-02-10T07:18:09;18.30;;;6.45;;
74213;SDS011;62576;55.694;37.494;2023-02-10T07:20:41;19.05;;;6.78;;
74213;SDS011;62576;55.694;37.494;2023-02-10T07:23:13;21.25;;;6.95;;
74213;SDS011;62576;55.694;37.494;2023-02-10T07:25:43;19.20;;;6.40;;
74213;SDS011;62576;55.694;37.494;2023-02-10T07:28:14;18.92;;;6.85;;
74213;SDS011;62576;55.694;37.494;2023-02-10T07:30:44;20.55;;;7.30;;
74213;SDS011;62576;55.694;37.494;2023-02-10T07:33:16;17.02;;;6.28;;
74213;SDS011;62576;55.694;37.494;2023-02-10T07:35:46;16.90;;;7.20;;
74213;SDS011;62576;55.694;37.494;2023-02-10T07:38:18;15.63;;;4.78;;
74213;SDS011;62576;55.694;37.494;2023-02-10T07:40:48;15.80;;;6.47;;
74213;SDS011;62576;55.694;37.494;2023-02-10T07:43:18;18.85;;;6.40;;
74213;SDS011;62576;55.694;37.494;2023-02-10T07:45:49;18.45;;;7.45;;
74213;SDS011;62576;55.694;37.494;2023-02-10T07:48:20;18.33;;;6.65;;
74213;SDS011;62576;55.694;37.494;2023-02-10T07:50:52;18.38;;;6.07;;
74213;SDS011;62576;55.694;37.494;2023-02-10T07:53:31;17.63;;;6.22;;
74213;SDS011;62576;55.694;37.494;2023-02-10T07:56:05;18.55;;;7.53;;
74213;SDS011;62576;55.694;37.494;2023-02-10T07:58:36;17.60;;;7.30;;
74213;SDS011;62576;55.694;37.494;2023-02-10T08:03:40;19.10;;;7.05;;
74213;SDS011;62576;55.694;37.494;2023-02-10T08:06:11;17.50;;;6.80;;
74213;SDS011;62576;55.694;37.494;2023-02-10T08:08:52;16.00;;;5.35;;
74213;SDS011;62576;55.694;37.494;2023-02-10T08:11:23;18.48;;;7.10;;
74213;SDS011;62576;55.694;37.494;2023-02-10T08:13:53;16.00;;;6.57;;
74213;SDS011;62576;55.694;37.494;2023-02-10T08:16:23;20.30;;;6.88;;
74213;SDS011;62576;55.694;37.494;2023-02-10T08:18:53;16.85;;;6.97;;
74213;SDS011;62576;55.694;37.494;2023-02-10T08:21:20;18.42;;;5.85;;
74213;SDS011;62576;55.694;37.494;2023-02-10T08:23:50;18.20;;;6.55;;
74213;SDS011;62576;55.694;37.494;2023-02-10T08:26:22;14.35;;;5.88;;
74213;SDS011;62576;55.694;37.494;2023-02-10T08:28:53;16.60;;;6.25;;
74213;SDS011;62576;55.694;37.494;2023-02-10T08:31:23;12.32;;;5.13;;
74213;SDS011;62576;55.694;37.494;2023-02-10T08:33:53;12.65;;;5.25;;
74213;SDS011;62576;55.694;37.494;2023-02-10T08:36:23;12.20;;;4.93;;
74213;SDS011;62576;55.694;37.494;2023-02-10T08:38:56;13.38;;;5.60;;
74213;SDS011;62576;55.694;37.494;2023-02-10T08:41:27;19.60;;;6.97;;
74213;SDS011;62576;55.694;37.494;2023-02-10T08:43:59;16.38;;;6.38;;
74213;SDS011;62576;55.694;37.494;2023-02-10T08:46:30;15.55;;;6.47;;
74213;SDS011;62576;55.694;37.494;2023-02-10T08:49:00;13.93;;;5.57;;
74213;SDS011;62576;55.694;37.494;2023-02-10T08:51:31;15.82;;;6.10;;
74213;SDS011;62576;55.694;37.494;2023-02-10T08:54:04;15.30;;;5.80;;
74213;SDS011;62576;55.694;37.494;2023-02-10T08:56:40;14.55;;;6.20;;
74213;SDS011;62576;55.694;37.494;2023-02-10T08:59:08;13.98;;;6.00;;
74213;SDS011;62576;55.694;37.494;2023-02-10T09:01:36;11.80;;;4.97;;
74213;SDS011;62576;55.694;37.494;2023-02-10T09:04:06;15.13;;;6.10;;
74213;SDS011;62576;55.694;37.494;2023-02-10T09:06:38;16.73;;;6.47;;
74213;SDS011;62576;55.694;37.494;2023-02-10T09:09:13;13.98;;;5.40;;
74213;SDS011;62576;55.694;37.494;2023-02-10T09:11:48;15.15;;;5.93;;
74213;SDS011;62576;55.694;37.494;2023-02-10T09:14:18;18.25;;;6.70;;
74213;SDS011;62576;55.694;37.494;2023-02-10T09:16:49;15.57;;;6.80;;
74213;SDS011;62576;55.694;37.494;2023-02-10T09:19:22;17.98;;;7.32;;
74213;SDS011;62576;55.694;37.494;2023-02-10T09:21:53;16.13;;;6.35;;
74213;SDS011;62576;55.694;37.494;2023-02-10T09:24:26;17.98;;;5.63;;
74213;SDS011;62576;55.694;37.494;2023-02-10T09:26:57;17.25;;;6.65;;
74213;SDS011;62576;55.694;37.494;2023-02-10T09:29:28;18.08;;;6.30;;
74213;SDS011;62576;55.694;37.494;2023-02-10T09:31:58;15.20;;;5.93;;
74213;SDS011;62576;55.694;37.494;2023-02-10T09:34:28;16.48;;;6.25;;
74213;SDS011;62576;55.694;37.494;2023-02-10T09:37:00;15.40;;;6.68;;
74213;SDS011;62576;55.694;37.494;2023-02-10T09:39:32;12.32;;;5.18;;
74213;SDS011;62576;55.694;37.494;2023-02-10T09:42:05;15.43;;;5.05;;
74213;SDS011;62576;55.694;37.494;2023-02-10T09:44:41;13.52;;;5.68;;
74213;SDS011;62576;55.694;37.494;2023-02-10T09:47:22;19.63;;;5.63;;
74213;SDS011;62576;55.694;37.494;2023-02-10T09:53:15;14.55;;;5.93;;
74213;SDS011;62576;55.694;37.494;2023-02-10T09:55:52;12.07;;;5.15;;
74213;SDS011;62576;55.694;37.494;2023-02-10T09:58:29;15.40;;;6.00;;
74213;SDS011;62576;55.694;37.494;2023-02-10T10:01:03;15.63;;;5.43;;
74213;SDS011;62576;55.694;37.494;2023-02-10T10:03:41;16.30;;;5.90;;
74213;SDS011;62576;55.694;37.494;2023-02-10T10:06:17;13.73;;;5.78;;
74213;SDS011;62576;55.694;37.494;2023-02-10T10:08:59;13.30;;;5.00;;
74213;SDS011;62576;55.694;37.494;2023-02-10T10:11:41;14.02;;;5.78;;
74213;SDS011;62576;55.694;37.494;2023-02-10T10:14:16;18.63;;;6.03;;
74213;SDS011;62576;55.694;37.494;2023-02-10T10:17:00;16.52;;;5.90;;
74213;SDS011;62576;55.694;37.494;2023-02-10T10:19:54;15.70;;;6.20;;
74213;SDS011;62576;55.694;37.494;2023-02-10T10:22:35;13.82;;;5.32;;
74213;SDS011;62576;55.694;37.494;2023-02-10T10:27:55;13.93;;;5.65;;
74213;SDS011;62576;55.694;37.494;2023-02-10T10:30:38;14.07;;;5.15;;
74213;SDS011;62576;55.694;37.494;2023-02-10T10:33:20;13.38;;;5.18;;
74213;SDS011;62576;55.694;37.494;2023-02-10T10:35:51;13.82;;;5.22;;
74213;SDS011;62576;55.694;37.494;2023-02-10T10:38:23;13.55;;;5.38;;
74213;SDS011;62576;55.694;37.494;2023-02-10T10:40:55;9.70;;;3.72;;
74213;SDS011;62576;55.694;37.494;2023-02-10T10:43:32;13.13;;;5.55;;
74213;SDS011;62576;55.694;37.494;2023-02-10T10:46:15;13.63;;;5.35;;
74213;SDS011;62576;55.694;37.494;2023-02-10T10:48:55;9.10;;;4.13;;
74213;SDS011;62576;55.694;37.494;2023-02-10T10:51:27;12.70;;;5.22;;
74213;SDS011;62576;55.694;37.494;2023-02-10T10:53:59;15.07;;;5.65;;
74213;SDS011;62576;55.694;37.494;2023-02-10T10:56:33;14.20;;;5.22;;
74213;SDS011;62576;55.694;37.494;2023-02-10T10:59:12;17.35;;;5.47;;
74213;SDS011;62576;55.694;37.494;2023-02-10T11:01:47;12.75;;;4.97;;
74213;SDS011;62576;55.694;37.494;2023-02-10T11:04:20;16.95;;;5.50;;
74213;SDS011;62576;55.694;37.494;2023-02-10T11:06:55;12.75;;;4.70;;
74213;SDS011;62576;55.694;37.494;2023-02-10T11:09:28;15.88;;;5.45;;
74213;SDS011;62576;55.694;37.494;2023-02-10T11:12:04;16.60;;;5.30;;
74213;SDS011;62576;55.694;37.494;2023-02-10T11:14:38;14.57;;;5.43;;
74213;SDS011;62576;55.694;37.494;2023-02-10T11:20:04;11.82;;;5.07;;
74213;SDS011;62576;55.694;37.494;2023-02-10T11:23:00;16.73;;;5.90;;
74213;SDS011;62576;55.694;37.494;2023-02-10T11:25:33;13.43;;;5.30;;
74213;SDS011;62576;55.694;37.494;2023-02-10T11:28:05;13.15;;;5.90;;
74213;SDS011;62576;55.694;37.494;2023-02-10T11:30:53;13.73;;;5.65;;
74213;SDS011;62576;55.694;37.494;2023-02-10T11:33:32;14.48;;;5.70;;
74213;SDS011;62576;55.694;37.494;2023-02-10T11:36:04;15.02;;;5.40;;
74213;SDS011;62576;55.694;37.494;2023-02-10T11:38:38;10.88;;;4.53;;
74213;SDS011;62576;55.694;37.494;2023-02-10T11:41:09;14.25;;;5.25;;
74213;SDS011;62576;55.694;37.494;2023-02-10T11:43:41;13.25;;;5.15;;
74213;SDS011;62576;55.694;37.494;2023-02-10T11:46:19;12.85;;;5.05;;
74213;SDS011;62576;55.694;37.494;2023-02-10T11:48:53;14.57;;;5.53;;
74213;SDS011;62576;55.694;37.494;2023-02-10T11:51:25;11.55;;;4.90;;
74213;SDS011;62576;55.694;37.494;2023-02-10T11:53:56;14.25;;;5.60;;
74213;SDS011;62576;55.694;37.494;2023-02-10T11:56:29;16.27;;;6.18;;
74213;SDS011;62576;55.694;37.494;2023-02-10T11:59:30;13.98;;;5.63;;
74213;SDS011;62576;55.694;37.494;2023-02-10T12:02:12;11.95;;;4.85;;
74213;SDS011;62576;55.694;37.494;2023-02-10T12:04:54;14.60;;;6.10;;
74213;SDS011;62576;55.694;37.494;2023-02-10T12:07:36;13.75;;;5.57;;
74213;SDS011;62576;55.694;37.494;2023-02-10T12:10:17;15.82;;;5.97;;
74213;SDS011;62576;55.694;37.494;2023-02-10T12:12:56;14.40;;;5.78;;
74213;SDS011;62576;55.694;37.494;2023-02-10T12:15:37;16.02;;;6.20;;
74213;SDS011;62576;55.694;37.494;2023-02-10T12:18:22;17.33;;;6.28;;
74213;SDS011;62576;55.694;37.494;2023-02-10T12:21:09;15.75;;;6.57;;
74213;SDS011;62576;55.694;37.494;2023-02-10T12:26:44;15.52;;;5.72;;
74213;SDS011;62576;55.694;37.494;2023-02-10T12:29:23;14.07;;;5.82;;
74213;SDS011;62576;55.694;37.494;2023-02-10T12:32:05;16.15;;;6.68;;
74213;SDS011;62576;55.694;37.494;2023-02-10T12:34:51;16.23;;;6.55;;
74213;SDS011;62576;55.694;37.494;2023-02-10T12:37:33;13.02;;;5.80;;
74213;SDS011;62576;55.694;37.494;2023-02-10T12:40:20;12.50;;;5.28;;
74213;SDS011;62576;55.694;37.494;2023-02-10T12:43:00;14.98;;;6.57;;
74213;SDS011;62576;55.694;37.494;2023-02-10T12:45:50;18.10;;;6.55;;
74213;SDS011;62576;55.694;37.494;2023-02-10T12:48:27;14.73;;;6.10;;
74213;SDS011;62576;55.694;37.494;2023-02-10T12:51:12;14.88;;;4.97;;
74213;SDS011;62576;55.694;37.494;2023-02-10T12:54:12;17.92;;;6.30;;
74213;SDS011;62576;55.694;37.494;2023-02-10T12:56:49;18.42;;;7.10;;
74213;SDS011;62576;55.694;37.494;2023-02-10T12:59:23;12.65;;;5.45;;
74213;SDS011;62576;55.694;37.494;2023-02-10T13:01:58;13.23;;;5.82;;
74213;SDS011;62576;55.694;37.494;2023-02-10T13:04:32;13.30;;;5.35;;
74213;SDS011;62576;55.694;37.494;2023-02-10T13:07:08;15.70;;;6.18;;
74213;SDS011;62576;55.694;37.494;2023-02-10T13:09:49;16.38;;;6.88;;
74213;SDS011;62576;55.694;37.494;2023-02-10T13:12:25;14.52;;;6.25;;
74213;SDS011;62576;55.694;37.494;2023-02-10T13:14:58;20.50;;;7.35;;
74213;SDS011;62576;55.694;37.494;2023-02-10T13:17:37;14.07;;;5.82;;
74213;SDS011;62576;55.694;37.494;2023-02-10T13:20:18;14.60;;;5.50;;
74213;SDS011;62576;55.694;37.494;2023-02-10T13:23:06;16.67;;;6.00;;
74213;SDS011;62576;55.694;37.494;2023-02-10T13:28:58;15.80;;;6.88;;
74213;SDS011;62576;55.694;37.494;2023-02-10T13:31:44;18.75;;;7.22;;
74213;SDS011;62576;55.694;37.494;2023-02-10T13:34:39;17.42;;;5.88;;
74213;SDS011;62576;55.694;37.494;2023-02-10T13:37:16;13.93;;;5.43;;
74213;SDS011;62576;55.694;37.494;2023-02-10T13:39:54;14.85;;;6.07;;
74213;SDS011;62576;55.694;37.494;2023-02-10T13:42:28;14.98;;;5.93;;
74213;SDS011;62576;55.694;37.494;2023-02-10T13:45:03;16.30;;;5.80;;
74213;SDS011;62576;55.694;37.494;2023-02-10T13:47:36;13.90;;;5.53;;
74213;SDS011;62576;55.694;37.494;2023-02-10T13:50:22;19.23;;;7.47;;
74213;SDS011;62576;55.694;37.494;2023-02-10T13:52:59;15.43;;;5.63;;
74213;SDS011;62576;55.694;37.494;2023-02-10T13:55:40;14.30;;;5.40;;
74213;SDS011;62576;55.694;37.494;2023-02-10T13:58:30;15.73;;;5.47;;
74213;SDS011;62576;55.694;37.494;2023-02-10T14:04:07;14.45;;;4.97;;
74213;SDS011;62576;55.694;37.494;2023-02-10T14:06:56;14.82;;;6.28;;
74213;SDS011;62576;55.694;37.494;2023-02-10T14:09:33;13.95;;;5.57;;
74213;SDS011;62576;55.694;37.494;2023-02-10T14:12:22;12.68;;;5.18;;
74213;SDS011;62576;55.694;37.494;2023-02-10T14:14:55;13.68;;;5.60;;
74213;SDS011;62576;55.694;37.494;2023-02-10T14:20:36;15.23;;;6.30;;
74213;SDS011;62576;55.694;37.494;2023-02-10T14:23:15;16.83;;;5.95;;
74213;SDS011;62576;55.694;37.494;2023-02-10T14:25:58;13.35;;;5.65;;
74213;SDS011;62576;55.694;37.494;2023-02-10T14:28:34;16.38;;;6.07;;
74213;SDS011;62576;55.694;37.494;2023-02-10T14:31:12;17.17;;;6.60;;
74213;SDS011;62576;55.694;37.494;2023-02-10T14:33:52;14.15;;;5.80;;
74213;SDS011;62576;55.694;37.494;2023-02-10T14:36:27;17.65;;;6.13;;
74213;SDS011;62576;55.694;37.494;2023-02-10T14:39:00;16.20;;;6.07;;
74213;SDS011;62576;55.694;37.494;2023-02-10T14:41:33;16.35;;;5.53;;
74213;SDS011;62576;55.694;37.494;2023-02-10T14:44:13;15.75;;;5.47;;
74213;SDS011;62576;55.694;37.494;2023-02-10T14:46:57;14.73;;;5.70;;
74213;SDS011;62576;55.694;37.494;2023-02-10T14:49:27;17.80;;;6.40;;
74213;SDS011;62576;55.694;37.494;2023-02-10T14:52:03;16.00;;;6.38;;
74213;SDS011;62576;55.694;37.494;2023-02-10T14:54:35;18.65;;;6.15;;
74213;SDS011;62576;55.694;37.494;2023-02-10T14:57:10;18.63;;;6.45;;
74213;SDS011;62576;55.694;37.494;2023-02-10T14:59:40;15.05;;;5.60;;
74213;SDS011;62576;55.694;37.494;2023-02-10T15:02:10;13.38;;;5.15;;
74213;SDS011;62576;55.694;37.494;2023-02-10T15:04:47;14.10;;;5.60;;
74213;SDS011;62576;55.694;37.494;2023-02-10T15:07:42;12.50;;;4.82;;
74213;SDS011;62576;55.694;37.494;2023-02-10T15:10:22;15.85;;;6.03;;
74213;SDS011;62576;55.694;37.494;2023-02-10T15:12:57;15.60;;;6.32;;
74213;SDS011;62576;55.694;37.494;2023-02-10T15:15:31;13.43;;;5.93;;
74213;SDS011;62576;55.694;37.494;2023-02-10T15:18:05;15.50;;;5.82;;
74213;SDS011;62576;55.694;37.494;2023-02-10T15:20:52;15.27;;;6.30;;
74213;SDS011;62576;55.694;37.494;2023-02-10T15:23:24;16.33;;;5.80;;
74213;SDS011;62576;55.694;37.494;2023-02-10T15:26:05;15.60;;;6.13;;
74213;SDS011;62576;55.694;37.494;2023-02-10T15:28:44;16.83;;;6.50;;
74213;SDS011;62576;55.694;37.494;2023-02-10T15:31:21;13.23;;;5.18;;
74213;SDS011;62576;55.694;37.494;2023-02-10T15:33:55;17.45;;;5.82;;